sensor_id;sensor_type;location;lat;lon;timestamp;P1;durP1;ratioP1;P2;durP2;ratioP2
16826;SDS011;8530;49.540;8.576;2023-04-06T00:02:14;11.17;;;8.60;;
16826;SDS011;8530;49.540;8.576;2023-04-06T00:04:41;10.40;;;7.30;;
16826;SDS011;8530;49.540;8.576;2023-04-06T00:07:08;11.17;;;8.13;;
16826;SDS011;8530;49.540;8.576;2023-04-06T00:09:34;10.70;;;8.03;;
16826;SDS011;8530;49.540;8.576;2023-04-06T00:12:01;9.90;;;7.80;;
16826;SDS011;8530;49.540;8.576;2023-04-06T00:14:28;9.10;;;6.87;;
16826;SDS011;8530;49.540;8.576;2023-04-06T00:16:56;9.20;;;7.70;;
16826;SDS011;8530;49.540;8.576;2023-04-06T00:19:23;6.97;;;6.27;;
16826;SDS011;8530;49.540;8.576;2023-04-06T00:21:49;11.87;;;8.90;;
16826;SDS011;8530;49.540;8.576;2023-04-06T00:24:16;12.83;;;8.50;;
16826;SDS011;8530;49.540;8.576;2023-04-06T00:26:43;17.27;;;8.17;;
16826;SDS011;8530;49.540;8.576;2023-04-06T00:29:10;11.90;;;9.40;;
16826;SDS011;8530;49.540;8.576;2023-04-06T00:31:36;7.53;;;6.77;;
16826;SDS011;8530;49.540;8.576;2023-04-06T00:34:05;9.20;;;7.50;;
16826;SDS011;8530;49.540;8.576;2023-04-06T00:36:31;8.40;;;7.50;;
16826;SDS011;8530;49.540;8.576;2023-04-06T00:38:58;12.67;;;9.47;;
16826;SDS011;8530;49.540;8.576;2023-04-06T00:41:25;10.13;;;8.70;;
16826;SDS011;8530;49.540;8.576;2023-04-06T00:43:53;9.73;;;8.73;;
16826;SDS011;8530;49.540;8.576;2023-04-06T00:46:20;12.67;;;8.37;;
16826;SDS011;8530;49.540;8.576;2023-04-06T00:48:46;13.47;;;10.37;;
16826;SDS011;8530;49.540;8.576;2023-04-06T00:51:14;12.70;;;9.70;;
16826;SDS011;8530;49.540;8.576;2023-04-06T00:53:41;11.83;;;9.70;;
16826;SDS011;8530;49.540;8.576;2023-04-06T00:56:08;11.23;;;9.70;;
16826;SDS011;8530;49.540;8.576;2023-04-06T00:58:35;11.60;;;9.50;;
16826;SDS011;8530;49.540;8.576;2023-04-06T01:01:03;12.07;;;9.50;;
16826;SDS011;8530;49.540;8.576;2023-04-06T01:03:30;13.90;;;8.90;;
16826;SDS011;8530;49.540;8.576;2023-04-06T01:05:56;11.60;;;8.67;;
16826;SDS011;8530;49.540;8.576;2023-04-06T01:08:26;8.90;;;8.00;;
16826;SDS011;8530;49.540;8.576;2023-04-06T01:10:53;11.50;;;9.47;;
16826;SDS011;8530;49.540;8.576;2023-04-06T01:13:20;12.17;;;8.80;;
16826;SDS011;8530;49.540;8.576;2023-04-06T01:15:47;10.73;;;8.60;;
16826;SDS011;8530;49.540;8.576;2023-04-06T01:18:14;13.50;;;10.00;;
16826;SDS011;8530;49.540;8.576;2023-04-06T01:20:41;13.23;;;11.30;;
16826;SDS011;8530;49.540;8.576;2023-04-06T01:23:09;13.80;;;9.17;;
16826;SDS011;8530;49.540;8.576;2023-04-06T01:25:36;10.00;;;8.97;;
16826;SDS011;8530;49.540;8.576;2023-04-06T01:28:03;12.37;;;9.80;;
16826;SDS011;8530;49.540;8.576;2023-04-06T01:30:29;14.57;;;9.67;;
16826;SDS011;8530;49.540;8.576;2023-04-06T01:32:56;10.80;;;9.70;;
16826;SDS011;8530;49.540;8.576;2023-04-06T01:35:23;13.30;;;10.40;;
16826;SDS011;8530;49.540;8.576;2023-04-06T01:37:50;12.87;;;8.50;;
16826;SDS011;8530;49.540;8.576;2023-04-06T01:40:18;10.43;;;9.27;;
16826;SDS011;8530;49.540;8.576;2023-04-06T01:42:45;10.63;;;9.47;;
16826;SDS011;8530;49.540;8.576;2023-04-06T01:45:12;11.97;;;8.60;;
16826;SDS011;8530;49.540;8.576;2023-04-06T01:47:39;11.77;;;9.00;;
16826;SDS011;8530;49.540;8.576;2023-04-06T01:50:06;13.37;;;9.40;;
16826;SDS011;8530;49.540;8.576;2023-04-06T01:52:34;8.90;;;8.00;;
16826;SDS011;8530;49.540;8.576;2023-04-06T01:55:00;8.37;;;7.47;;
16826;SDS011;8530;49.540;8.576;2023-04-06T01:57:28;12.97;;;7.77;;
16826;SDS011;8530;49.540;8.576;2023-04-06T01:59:55;9.73;;;8.33;;
16826;SDS011;8530;49.540;8.576;2023-04-06T02:02:22;7.93;;;7.30;;
16826;SDS011;8530;49.540;8.576;2023-04-06T02:04:48;10.20;;;7.07;;
16826;SDS011;8530;49.540;8.576;2023-04-06T02:07:15;8.00;;;6.83;;
16826;SDS011;8530;49.540;8.576;2023-04-06T02:09:42;14.47;;;8.60;;
16826;SDS011;8530;49.540;8.576;2023-04-06T02:12:08;11.07;;;8.23;;
16826;SDS011;8530;49.540;8.576;2023-04-06T02:14:36;10.40;;;9.30;;
16826;SDS011;8530;49.540;8.576;2023-04-06T02:17:03;12.87;;;9.40;;
16826;SDS011;8530;49.540;8.576;2023-04-06T02:19:30;9.60;;;8.40;;
16826;SDS011;8530;49.540;8.576;2023-04-06T02:21:56;9.53;;;8.53;;
16826;SDS011;8530;49.540;8.576;2023-04-06T02:24:23;11.90;;;9.60;;
16826;SDS011;8530;49.540;8.576;2023-04-06T02:26:50;13.63;;;10.13;;
16826;SDS011;8530;49.540;8.576;2023-04-06T02:29:16;13.83;;;11.00;;
16826;SDS011;8530;49.540;8.576;2023-04-06T02:31:44;16.93;;;11.60;;
16826;SDS011;8530;49.540;8.576;2023-04-06T02:34:11;22.73;;;12.87;;
16826;SDS011;8530;49.540;8.576;2023-04-06T02:36:42;16.80;;;10.73;;
16826;SDS011;8530;49.540;8.576;2023-04-06T02:39:09;11.27;;;9.23;;
16826;SDS011;8530;49.540;8.576;2023-04-06T02:41:36;10.67;;;8.77;;
16826;SDS011;8530;49.540;8.576;2023-04-06T02:44:03;12.67;;;9.93;;
16826;SDS011;8530;49.540;8.576;2023-04-06T02:46:29;9.60;;;8.33;;
16826;SDS011;8530;49.540;8.576;2023-04-06T02:48:57;9.53;;;8.57;;
16826;SDS011;8530;49.540;8.576;2023-04-06T02:51:25;8.93;;;8.10;;
16826;SDS011;8530;49.540;8.576;2023-04-06T02:53:52;10.10;;;7.90;;
16826;SDS011;8530;49.540;8.576;2023-04-06T02:56:19;9.90;;;8.50;;
16826;SDS011;8530;49.540;8.576;2023-04-06T02:58:46;12.70;;;7.70;;
16826;SDS011;8530;49.540;8.576;2023-04-06T03:01:13;9.20;;;8.30;;
16826;SDS011;8530;49.540;8.576;2023-04-06T03:03:40;8.80;;;7.70;;
16826;SDS011;8530;49.540;8.576;2023-04-06T03:06:08;8.23;;;7.40;;
16826;SDS011;8530;49.540;8.576;2023-04-06T03:08:35;10.83;;;9.77;;
16826;SDS011;8530;49.540;8.576;2023-04-06T03:11:01;9.53;;;7.93;;
16826;SDS011;8530;49.540;8.576;2023-04-06T03:13:28;10.73;;;7.83;;
16826;SDS011;8530;49.540;8.576;2023-04-06T03:15:55;11.67;;;8.60;;
16826;SDS011;8530;49.540;8.576;2023-04-06T03:18:23;10.73;;;9.33;;
16826;SDS011;8530;49.540;8.576;2023-04-06T03:20:51;10.43;;;8.87;;
16826;SDS011;8530;49.540;8.576;2023-04-06T03:23:20;11.90;;;10.67;;
16826;SDS011;8530;49.540;8.576;2023-04-06T03:25:46;10.00;;;9.00;;
16826;SDS011;8530;49.540;8.576;2023-04-06T03:28:13;10.53;;;9.17;;
16826;SDS011;8530;49.540;8.576;2023-04-06T03:30:40;15.60;;;11.30;;
16826;SDS011;8530;49.540;8.576;2023-04-06T03:33:07;13.10;;;11.70;;
16826;SDS011;8530;49.540;8.576;2023-04-06T03:35:34;14.60;;;12.17;;
16826;SDS011;8530;49.540;8.576;2023-04-06T03:38:01;13.80;;;10.77;;
16826;SDS011;8530;49.540;8.576;2023-04-06T03:40:29;13.43;;;12.00;;
16826;SDS011;8530;49.540;8.576;2023-04-06T03:42:56;12.50;;;11.30;;
16826;SDS011;8530;49.540;8.576;2023-04-06T03:45:23;15.10;;;12.07;;
16826;SDS011;8530;49.540;8.576;2023-04-06T03:47:50;14.17;;;11.27;;
16826;SDS011;8530;49.540;8.576;2023-04-06T03:50:16;15.17;;;11.87;;
16826;SDS011;8530;49.540;8.576;2023-04-06T03:52:43;17.27;;;14.03;;
16826;SDS011;8530;49.540;8.576;2023-04-06T03:55:10;12.47;;;11.17;;
16826;SDS011;8530;49.540;8.576;2023-04-06T03:57:38;14.30;;;12.53;;
16826;SDS011;8530;49.540;8.576;2023-04-06T04:00:05;14.23;;;12.83;;
16826;SDS011;8530;49.540;8.576;2023-04-06T04:02:32;13.00;;;11.57;;
16826;SDS011;8530;49.540;8.576;2023-04-06T04:04:59;12.87;;;11.50;;
16826;SDS011;8530;49.540;8.576;2023-04-06T04:07:26;14.40;;;12.63;;
16826;SDS011;8530;49.540;8.576;2023-04-06T04:09:52;15.70;;;13.40;;
16826;SDS011;8530;49.540;8.576;2023-04-06T04:12:19;13.27;;;10.97;;
16826;SDS011;8530;49.540;8.576;2023-04-06T04:14:47;17.67;;;12.60;;
16826;SDS011;8530;49.540;8.576;2023-04-06T04:17:14;17.07;;;11.87;;
16826;SDS011;8530;49.540;8.576;2023-04-06T04:19:41;12.70;;;11.47;;
16826;SDS011;8530;49.540;8.576;2023-04-06T04:22:07;16.30;;;12.77;;
16826;SDS011;8530;49.540;8.576;2023-04-06T04:24:34;16.53;;;12.30;;
16826;SDS011;8530;49.540;8.576;2023-04-06T04:27:01;19.87;;;11.83;;
16826;SDS011;8530;49.540;8.576;2023-04-06T04:29:28;14.00;;;12.30;;
16826;SDS011;8530;49.540;8.576;2023-04-06T04:31:56;15.30;;;12.30;;
16826;SDS011;8530;49.540;8.576;2023-04-06T04:34:22;14.80;;;11.80;;
16826;SDS011;8530;49.540;8.576;2023-04-06T04:36:50;16.60;;;13.70;;
16826;SDS011;8530;49.540;8.576;2023-04-06T04:39:16;16.63;;;14.07;;
16826;SDS011;8530;49.540;8.576;2023-04-06T04:41:43;15.63;;;14.00;;
16826;SDS011;8530;49.540;8.576;2023-04-06T04:44:10;16.20;;;13.90;;
16826;SDS011;8530;49.540;8.576;2023-04-06T04:46:37;14.27;;;12.70;;
16826;SDS011;8530;49.540;8.576;2023-04-06T04:49:05;21.93;;;14.73;;
16826;SDS011;8530;49.540;8.576;2023-04-06T04:51:31;18.27;;;13.83;;
16826;SDS011;8530;49.540;8.576;2023-04-06T04:53:58;17.80;;;12.97;;
16826;SDS011;8530;49.540;8.576;2023-04-06T04:56:25;16.17;;;13.87;;
16826;SDS011;8530;49.540;8.576;2023-04-06T04:58:52;18.70;;;12.97;;
16826;SDS011;8530;49.540;8.576;2023-04-06T05:01:19;14.87;;;12.60;;
16826;SDS011;8530;49.540;8.576;2023-04-06T05:03:45;17.63;;;12.20;;
16826;SDS011;8530;49.540;8.576;2023-04-06T05:06:14;15.33;;;12.30;;
16826;SDS011;8530;49.540;8.576;2023-04-06T05:08:40;10.97;;;9.93;;
16826;SDS011;8530;49.540;8.576;2023-04-06T05:11:07;18.70;;;12.53;;
16826;SDS011;8530;49.540;8.576;2023-04-06T05:13:34;23.33;;;12.73;;
16826;SDS011;8530;49.540;8.576;2023-04-06T05:16:01;15.30;;;11.90;;
16826;SDS011;8530;49.540;8.576;2023-04-06T05:18:28;11.87;;;10.67;;
16826;SDS011;8530;49.540;8.576;2023-04-06T05:20:55;17.83;;;13.27;;
16826;SDS011;8530;49.540;8.576;2023-04-06T05:23:23;14.77;;;12.13;;
16826;SDS011;8530;49.540;8.576;2023-04-06T05:25:49;13.27;;;11.93;;
16826;SDS011;8530;49.540;8.576;2023-04-06T05:28:17;14.00;;;12.50;;
16826;SDS011;8530;49.540;8.576;2023-04-06T05:30:44;11.57;;;10.47;;
16826;SDS011;8530;49.540;8.576;2023-04-06T05:33:11;16.60;;;13.30;;
16826;SDS011;8530;49.540;8.576;2023-04-06T05:35:41;17.23;;;11.73;;
16826;SDS011;8530;49.540;8.576;2023-04-06T05:38:08;19.43;;;12.03;;
16826;SDS011;8530;49.540;8.576;2023-04-06T05:40:36;16.33;;;13.13;;
16826;SDS011;8530;49.540;8.576;2023-04-06T05:43:05;19.10;;;11.60;;
16826;SDS011;8530;49.540;8.576;2023-04-06T05:45:32;17.20;;;13.40;;
16826;SDS011;8530;49.540;8.576;2023-04-06T05:47:59;16.43;;;12.63;;
16826;SDS011;8530;49.540;8.576;2023-04-06T05:50:26;15.57;;;11.53;;
16826;SDS011;8530;49.540;8.576;2023-04-06T05:52:53;23.53;;;13.20;;
16826;SDS011;8530;49.540;8.576;2023-04-06T05:55:21;14.43;;;11.63;;
16826;SDS011;8530;49.540;8.576;2023-04-06T05:57:50;11.83;;;10.63;;
16826;SDS011;8530;49.540;8.576;2023-04-06T06:00:17;12.93;;;11.50;;
16826;SDS011;8530;49.540;8.576;2023-04-06T06:02:44;13.10;;;10.30;;
16826;SDS011;8530;49.540;8.576;2023-04-06T06:05:11;11.70;;;10.50;;
16826;SDS011;8530;49.540;8.576;2023-04-06T06:07:37;11.77;;;10.57;;
16826;SDS011;8530;49.540;8.576;2023-04-06T06:10:04;13.77;;;10.50;;
16826;SDS011;8530;49.540;8.576;2023-04-06T06:12:32;12.40;;;10.70;;
16826;SDS011;8530;49.540;8.576;2023-04-06T06:15:00;13.20;;;10.40;;
16826;SDS011;8530;49.540;8.576;2023-04-06T06:17:27;10.87;;;9.77;;
16826;SDS011;8530;49.540;8.576;2023-04-06T06:19:53;18.70;;;10.67;;
16826;SDS011;8530;49.540;8.576;2023-04-06T06:22:20;15.27;;;10.07;;
16826;SDS011;8530;49.540;8.576;2023-04-06T06:24:46;14.03;;;9.13;;
16826;SDS011;8530;49.540;8.576;2023-04-06T06:27:14;11.57;;;8.40;;
16826;SDS011;8530;49.540;8.576;2023-04-06T06:29:41;11.03;;;7.87;;
16826;SDS011;8530;49.540;8.576;2023-04-06T06:32:09;13.57;;;9.00;;
16826;SDS011;8530;49.540;8.576;2023-04-06T06:34:36;10.27;;;7.63;;
16826;SDS011;8530;49.540;8.576;2023-04-06T06:37:02;11.27;;;7.40;;
16826;SDS011;8530;49.540;8.576;2023-04-06T06:39:29;9.80;;;7.53;;
16826;SDS011;8530;49.540;8.576;2023-04-06T06:41:56;9.10;;;7.07;;
16826;SDS011;8530;49.540;8.576;2023-04-06T06:44:25;15.10;;;8.50;;
16826;SDS011;8530;49.540;8.576;2023-04-06T06:46:52;21.23;;;8.47;;
16826;SDS011;8530;49.540;8.576;2023-04-06T06:49:20;8.50;;;7.47;;
16826;SDS011;8530;49.540;8.576;2023-04-06T06:51:47;16.90;;;8.17;;
16826;SDS011;8530;49.540;8.576;2023-04-06T06:54:14;20.23;;;7.67;;
16826;SDS011;8530;49.540;8.576;2023-04-06T06:56:41;12.23;;;8.80;;
16826;SDS011;8530;49.540;8.576;2023-04-06T06:59:08;15.23;;;7.60;;
16826;SDS011;8530;49.540;8.576;2023-04-06T07:01:36;12.67;;;8.10;;
16826;SDS011;8530;49.540;8.576;2023-04-06T07:04:03;18.03;;;7.80;;
16826;SDS011;8530;49.540;8.576;2023-04-06T07:06:31;12.30;;;7.97;;
16826;SDS011;8530;49.540;8.576;2023-04-06T07:08:58;17.97;;;8.13;;
16826;SDS011;8530;49.540;8.576;2023-04-06T07:11:25;18.17;;;8.77;;
16826;SDS011;8530;49.540;8.576;2023-04-06T07:13:52;16.93;;;7.30;;
16826;SDS011;8530;49.540;8.576;2023-04-06T07:16:20;9.57;;;7.23;;
16826;SDS011;8530;49.540;8.576;2023-04-06T07:18:47;11.00;;;7.43;;
16826;SDS011;8530;49.540;8.576;2023-04-06T07:21:14;8.93;;;7.17;;
16826;SDS011;8530;49.540;8.576;2023-04-06T07:23:42;12.50;;;7.77;;
16826;SDS011;8530;49.540;8.576;2023-04-06T07:26:09;7.70;;;6.90;;
16826;SDS011;8530;49.540;8.576;2023-04-06T07:28:36;11.57;;;7.77;;
16826;SDS011;8530;49.540;8.576;2023-04-06T07:31:02;13.03;;;8.77;;
16826;SDS011;8530;49.540;8.576;2023-04-06T07:33:29;9.10;;;7.73;;
16826;SDS011;8530;49.540;8.576;2023-04-06T07:35:56;12.93;;;8.63;;
16826;SDS011;8530;49.540;8.576;2023-04-06T07:38:23;11.83;;;8.13;;
16826;SDS011;8530;49.540;8.576;2023-04-06T07:40:51;8.83;;;7.67;;
16826;SDS011;8530;49.540;8.576;2023-04-06T07:43:18;11.23;;;7.73;;
16826;SDS011;8530;49.540;8.576;2023-04-06T07:45:45;10.00;;;9.00;;
16826;SDS011;8530;49.540;8.576;2023-04-06T07:48:11;10.83;;;7.87;;
16826;SDS011;8530;49.540;8.576;2023-04-06T07:50:38;10.60;;;8.50;;
16826;SDS011;8530;49.540;8.576;2023-04-06T07:53:05;12.77;;;8.47;;
16826;SDS011;8530;49.540;8.576;2023-04-06T07:55:31;9.40;;;7.97;;
16826;SDS011;8530;49.540;8.576;2023-04-06T07:57:59;10.80;;;8.68;;
16826;SDS011;8530;49.540;8.576;2023-04-06T08:00:26;8.93;;;7.93;;
16826;SDS011;8530;49.540;8.576;2023-04-06T08:02:53;12.40;;;8.10;;
16826;SDS011;8530;49.540;8.576;2023-04-06T08:05:20;9.27;;;8.15;;
16826;SDS011;8530;49.540;8.576;2023-04-06T08:07:46;11.25;;;7.60;;
16826;SDS011;8530;49.540;8.576;2023-04-06T08:10:13;12.40;;;8.48;;
16826;SDS011;8530;49.540;8.576;2023-04-06T08:12:40;7.30;;;6.60;;
16826;SDS011;8530;49.540;8.576;2023-04-06T08:15:08;8.95;;;7.75;;
16826;SDS011;8530;49.540;8.576;2023-04-06T08:17:35;12.18;;;7.65;;
16826;SDS011;8530;49.540;8.576;2023-04-06T08:20:03;10.02;;;7.05;;
16826;SDS011;8530;49.540;8.576;2023-04-06T08:22:30;9.00;;;7.95;;
16826;SDS011;8530;49.540;8.576;2023-04-06T08:24:58;8.07;;;6.97;;
16826;SDS011;8530;49.540;8.576;2023-04-06T08:27:25;10.07;;;7.87;;
16826;SDS011;8530;49.540;8.576;2023-04-06T08:29:52;13.30;;;8.07;;
16826;SDS011;8530;49.540;8.576;2023-04-06T08:32:20;7.97;;;6.93;;
16826;SDS011;8530;49.540;8.576;2023-04-06T08:34:47;9.57;;;8.00;;
16826;SDS011;8530;49.540;8.576;2023-04-06T08:37:14;8.77;;;7.47;;
16826;SDS011;8530;49.540;8.576;2023-04-06T08:39:41;11.33;;;7.90;;
16826;SDS011;8530;49.540;8.576;2023-04-06T08:42:10;11.30;;;8.93;;
16826;SDS011;8530;49.540;8.576;2023-04-06T08:44:48;9.40;;;8.10;;
16826;SDS011;8530;49.540;8.576;2023-04-06T08:47:23;9.03;;;8.13;;
16826;SDS011;8530;49.540;8.576;2023-04-06T08:49:51;14.00;;;9.73;;
16826;SDS011;8530;49.540;8.576;2023-04-06T08:52:18;12.83;;;9.37;;
16826;SDS011;8530;49.540;8.576;2023-04-06T08:54:45;18.27;;;10.50;;
16826;SDS011;8530;49.540;8.576;2023-04-06T08:57:13;11.93;;;9.10;;
16826;SDS011;8530;49.540;8.576;2023-04-06T08:59:40;15.27;;;10.10;;
16826;SDS011;8530;49.540;8.576;2023-04-06T09:02:08;11.17;;;9.70;;
16826;SDS011;8530;49.540;8.576;2023-04-06T09:04:43;9.70;;;8.30;;
16826;SDS011;8530;49.540;8.576;2023-04-06T09:07:11;11.50;;;10.17;;
16826;SDS011;8530;49.540;8.576;2023-04-06T09:09:38;10.33;;;8.97;;
16826;SDS011;8530;49.540;8.576;2023-04-06T09:12:08;10.83;;;9.47;;
16826;SDS011;8530;49.540;8.576;2023-04-06T09:14:37;14.00;;;11.03;;
16826;SDS011;8530;49.540;8.576;2023-04-06T09:17:05;10.43;;;9.30;;
16826;SDS011;8530;49.540;8.576;2023-04-06T09:19:32;10.23;;;8.73;;
16826;SDS011;8530;49.540;8.576;2023-04-06T09:22:03;13.13;;;10.07;;
16826;SDS011;8530;49.540;8.576;2023-04-06T09:24:41;13.87;;;11.17;;
16826;SDS011;8530;49.540;8.576;2023-04-06T09:27:08;16.40;;;8.90;;
16826;SDS011;8530;49.540;8.576;2023-04-06T09:29:35;14.37;;;9.40;;
16826;SDS011;8530;49.540;8.576;2023-04-06T09:32:02;12.13;;;8.30;;
16826;SDS011;8530;49.540;8.576;2023-04-06T09:34:30;14.90;;;9.67;;
16826;SDS011;8530;49.540;8.576;2023-04-06T09:36:57;10.57;;;8.87;;
16826;SDS011;8530;49.540;8.576;2023-04-06T09:39:25;10.03;;;8.50;;
16826;SDS011;8530;49.540;8.576;2023-04-06T09:41:53;10.87;;;9.23;;
16826;SDS011;8530;49.540;8.576;2023-04-06T09:44:20;18.60;;;10.20;;
16826;SDS011;8530;49.540;8.576;2023-04-06T09:46:48;12.83;;;10.20;;
16826;SDS011;8530;49.540;8.576;2023-04-06T09:49:15;12.03;;;10.20;;
16826;SDS011;8530;49.540;8.576;2023-04-06T09:51:44;14.23;;;9.77;;
16826;SDS011;8530;49.540;8.576;2023-04-06T09:54:15;14.70;;;10.40;;
16826;SDS011;8530;49.540;8.576;2023-04-06T09:56:47;16.07;;;9.97;;
16826;SDS011;8530;49.540;8.576;2023-04-06T09:59:18;12.77;;;10.60;;
16826;SDS011;8530;49.540;8.576;2023-04-06T10:01:48;13.93;;;8.80;;
16826;SDS011;8530;49.540;8.576;2023-04-06T10:04:21;10.57;;;9.27;;
16826;SDS011;8530;49.540;8.576;2023-04-06T10:06:58;11.93;;;9.70;;
16826;SDS011;8530;49.540;8.576;2023-04-06T10:09:28;13.10;;;9.40;;
16826;SDS011;8530;49.540;8.576;2023-04-06T10:12:01;15.23;;;8.80;;
16826;SDS011;8530;49.540;8.576;2023-04-06T10:14:30;12.03;;;9.30;;
16826;SDS011;8530;49.540;8.576;2023-04-06T10:16:57;10.93;;;8.47;;
16826;SDS011;8530;49.540;8.576;2023-04-06T10:19:25;11.53;;;8.83;;
16826;SDS011;8530;49.540;8.576;2023-04-06T10:21:55;19.13;;;9.17;;
16826;SDS011;8530;49.540;8.576;2023-04-06T10:24:26;11.60;;;8.77;;
16826;SDS011;8530;49.540;8.576;2023-04-06T10:27:00;14.43;;;7.73;;
16826;SDS011;8530;49.540;8.576;2023-04-06T10:29:40;9.57;;;8.27;;
16826;SDS011;8530;49.540;8.576;2023-04-06T10:32:11;8.40;;;6.67;;
16826;SDS011;8530;49.540;8.576;2023-04-06T10:34:38;8.83;;;7.93;;
16826;SDS011;8530;49.540;8.576;2023-04-06T10:37:12;14.90;;;9.83;;
16826;SDS011;8530;49.540;8.576;2023-04-06T10:39:46;9.53;;;6.90;;
16826;SDS011;8530;49.540;8.576;2023-04-06T10:42:15;10.40;;;7.80;;
16826;SDS011;8530;49.540;8.576;2023-04-06T10:44:42;12.63;;;7.67;;
16826;SDS011;8530;49.540;8.576;2023-04-06T10:47:15;9.70;;;7.57;;
16826;SDS011;8530;49.540;8.576;2023-04-06T10:49:43;9.30;;;7.07;;
16826;SDS011;8530;49.540;8.576;2023-04-06T10:52:10;13.27;;;8.10;;
16826;SDS011;8530;49.540;8.576;2023-04-06T10:54:38;9.50;;;7.63;;
16826;SDS011;8530;49.540;8.576;2023-04-06T10:57:08;9.50;;;8.30;;
16826;SDS011;8530;49.540;8.576;2023-04-06T10:59:36;17.40;;;7.80;;
16826;SDS011;8530;49.540;8.576;2023-04-06T11:02:07;23.50;;;7.83;;
16826;SDS011;8530;49.540;8.576;2023-04-06T11:04:34;13.03;;;8.10;;
16826;SDS011;8530;49.540;8.576;2023-04-06T11:07:01;10.63;;;7.30;;
16826;SDS011;8530;49.540;8.576;2023-04-06T11:09:28;9.87;;;6.87;;
16826;SDS011;8530;49.540;8.576;2023-04-06T11:11:56;5.83;;;5.17;;
16826;SDS011;8530;49.540;8.576;2023-04-06T11:14:23;6.20;;;4.87;;
16826;SDS011;8530;49.540;8.576;2023-04-06T11:16:52;9.27;;;5.90;;
16826;SDS011;8530;49.540;8.576;2023-04-06T11:19:19;7.10;;;6.40;;
16826;SDS011;8530;49.540;8.576;2023-04-06T11:21:47;6.97;;;5.90;;
16826;SDS011;8530;49.540;8.576;2023-04-06T11:24:15;6.57;;;5.10;;
16826;SDS011;8530;49.540;8.576;2023-04-06T11:26:44;8.73;;;6.47;;
16826;SDS011;8530;49.540;8.576;2023-04-06T11:29:14;8.27;;;6.23;;
16826;SDS011;8530;49.540;8.576;2023-04-06T11:31:44;6.83;;;5.90;;
16826;SDS011;8530;49.540;8.576;2023-04-06T11:34:15;7.97;;;7.03;;
16826;SDS011;8530;49.540;8.576;2023-04-06T11:36:44;8.97;;;5.90;;
16826;SDS011;8530;49.540;8.576;2023-04-06T11:39:13;7.40;;;6.20;;
16826;SDS011;8530;49.540;8.576;2023-04-06T11:41:47;9.50;;;6.00;;
16826;SDS011;8530;49.540;8.576;2023-04-06T11:44:14;9.77;;;8.50;;
16826;SDS011;8530;49.540;8.576;2023-04-06T11:46:50;10.03;;;8.00;;
16826;SDS011;8530;49.540;8.576;2023-04-06T11:49:19;12.60;;;8.63;;
16826;SDS011;8530;49.540;8.576;2023-04-06T11:51:46;10.57;;;8.03;;
16826;SDS011;8530;49.540;8.576;2023-04-06T11:54:12;8.60;;;7.50;;
16826;SDS011;8530;49.540;8.576;2023-04-06T11:56:39;10.13;;;8.17;;
16826;SDS011;8530;49.540;8.576;2023-04-06T11:59:06;8.63;;;7.70;;
16826;SDS011;8530;49.540;8.576;2023-04-06T12:01:32;8.93;;;6.77;;
16826;SDS011;8530;49.540;8.576;2023-04-06T12:03:59;8.70;;;7.90;;
16826;SDS011;8530;49.540;8.576;2023-04-06T12:06:28;12.00;;;8.50;;
16826;SDS011;8530;49.540;8.576;2023-04-06T12:08:56;11.30;;;7.83;;
16826;SDS011;8530;49.540;8.576;2023-04-06T12:11:24;9.57;;;8.30;;
16826;SDS011;8530;49.540;8.576;2023-04-06T12:13:51;9.30;;;8.33;;
16826;SDS011;8530;49.540;8.576;2023-04-06T12:16:19;9.17;;;8.00;;
16826;SDS011;8530;49.540;8.576;2023-04-06T12:18:46;8.60;;;7.63;;
16826;SDS011;8530;49.540;8.576;2023-04-06T12:21:12;9.87;;;8.13;;
16826;SDS011;8530;49.540;8.576;2023-04-06T12:23:40;9.80;;;7.93;;
16826;SDS011;8530;49.540;8.576;2023-04-06T12:26:07;11.70;;;8.10;;
16826;SDS011;8530;49.540;8.576;2023-04-06T12:28:34;9.90;;;8.07;;
16826;SDS011;8530;49.540;8.576;2023-04-06T12:31:01;13.17;;;8.50;;
16826;SDS011;8530;49.540;8.576;2023-04-06T12:33:27;16.57;;;9.00;;
16826;SDS011;8530;49.540;8.576;2023-04-06T12:35:54;15.90;;;9.27;;
16826;SDS011;8530;49.540;8.576;2023-04-06T12:38:21;10.20;;;8.77;;
16826;SDS011;8530;49.540;8.576;2023-04-06T12:40:49;12.40;;;8.17;;
16826;SDS011;8530;49.540;8.576;2023-04-06T12:43:16;9.70;;;8.00;;
16826;SDS011;8530;49.540;8.576;2023-04-06T12:45:43;8.47;;;7.00;;
16826;SDS011;8530;49.540;8.576;2023-04-06T12:48:09;10.87;;;8.33;;
16826;SDS011;8530;49.540;8.576;2023-04-06T12:50:36;11.00;;;8.50;;
16826;SDS011;8530;49.540;8.576;2023-04-06T12:53:03;15.83;;;9.47;;
16826;SDS011;8530;49.540;8.576;2023-04-06T12:55:30;11.30;;;8.73;;
16826;SDS011;8530;49.540;8.576;2023-04-06T12:58:00;9.20;;;8.27;;
16826;SDS011;8530;49.540;8.576;2023-04-06T13:00:27;12.40;;;7.40;;
16826;SDS011;8530;49.540;8.576;2023-04-06T13:02:54;11.10;;;8.50;;
16826;SDS011;8530;49.540;8.576;2023-04-06T13:05:21;10.33;;;9.23;;
16826;SDS011;8530;49.540;8.576;2023-04-06T13:07:47;9.73;;;8.20;;
16826;SDS011;8530;49.540;8.576;2023-04-06T13:10:14;12.87;;;8.53;;
16826;SDS011;8530;49.540;8.576;2023-04-06T13:12:41;11.67;;;9.00;;
16826;SDS011;8530;49.540;8.576;2023-04-06T13:15:10;10.23;;;8.23;;
16826;SDS011;8530;49.540;8.576;2023-04-06T13:17:36;10.87;;;8.77;;
16826;SDS011;8530;49.540;8.576;2023-04-06T13:20:03;13.47;;;10.23;;
16826;SDS011;8530;49.540;8.576;2023-04-06T13:22:31;14.00;;;10.40;;
16826;SDS011;8530;49.540;8.576;2023-04-06T13:24:58;12.07;;;9.13;;
16826;SDS011;8530;49.540;8.576;2023-04-06T13:27:25;13.40;;;9.37;;
16826;SDS011;8530;49.540;8.576;2023-04-06T13:29:52;11.43;;;9.10;;
16826;SDS011;8530;49.540;8.576;2023-04-06T13:32:20;9.50;;;8.03;;
16826;SDS011;8530;49.540;8.576;2023-04-06T13:34:47;11.13;;;7.60;;
16826;SDS011;8530;49.540;8.576;2023-04-06T13:37:15;9.80;;;8.10;;
16826;SDS011;8530;49.540;8.576;2023-04-06T13:39:41;11.10;;;7.97;;
16826;SDS011;8530;49.540;8.576;2023-04-06T13:42:08;11.33;;;9.20;;
16826;SDS011;8530;49.540;8.576;2023-04-06T13:44:35;12.97;;;8.37;;
16826;SDS011;8530;49.540;8.576;2023-04-06T13:47:02;13.80;;;9.70;;
16826;SDS011;8530;49.540;8.576;2023-04-06T13:49:30;13.67;;;9.00;;
16826;SDS011;8530;49.540;8.576;2023-04-06T13:51:57;12.90;;;8.10;;
16826;SDS011;8530;49.540;8.576;2023-04-06T13:54:26;14.83;;;8.03;;
16826;SDS011;8530;49.540;8.576;2023-04-06T13:56:53;9.80;;;7.40;;
16826;SDS011;8530;49.540;8.576;2023-04-06T13:59:20;10.03;;;7.17;;
16826;SDS011;8530;49.540;8.576;2023-04-06T14:01:47;11.40;;;8.20;;
16826;SDS011;8530;49.540;8.576;2023-04-06T14:04:13;9.87;;;7.90;;
16826;SDS011;8530;49.540;8.576;2023-04-06T14:06:41;10.97;;;7.47;;
16826;SDS011;8530;49.540;8.576;2023-04-06T14:09:11;9.67;;;7.10;;
16826;SDS011;8530;49.540;8.576;2023-04-06T14:11:38;12.53;;;7.23;;
16826;SDS011;8530;49.540;8.576;2023-04-06T14:14:04;9.20;;;7.33;;
16826;SDS011;8530;49.540;8.576;2023-04-06T14:16:31;8.63;;;7.50;;
16826;SDS011;8530;49.540;8.576;2023-04-06T14:18:58;8.97;;;5.40;;
16826;SDS011;8530;49.540;8.576;2023-04-06T14:21:25;7.93;;;6.70;;
16826;SDS011;8530;49.540;8.576;2023-04-06T14:23:53;9.93;;;6.87;;
16826;SDS011;8530;49.540;8.576;2023-04-06T14:26:21;8.80;;;6.90;;
16826;SDS011;8530;49.540;8.576;2023-04-06T14:28:48;11.97;;;7.30;;
16826;SDS011;8530;49.540;8.576;2023-04-06T14:33:43;8.70;;;7.63;;
16826;SDS011;8530;49.540;8.576;2023-04-06T14:36:11;7.23;;;6.50;;
16826;SDS011;8530;49.540;8.576;2023-04-06T14:38:37;10.30;;;7.10;;
16826;SDS011;8530;49.540;8.576;2023-04-06T14:41:09;11.73;;;7.80;;
16826;SDS011;8530;49.540;8.576;2023-04-06T14:43:41;8.37;;;6.23;;
16826;SDS011;8530;49.540;8.576;2023-04-06T14:46:07;8.50;;;6.57;;
16826;SDS011;8530;49.540;8.576;2023-04-06T14:48:34;9.17;;;6.27;;
16826;SDS011;8530;49.540;8.576;2023-04-06T14:51:01;10.80;;;7.80;;
16826;SDS011;8530;49.540;8.576;2023-04-06T14:53:28;6.97;;;5.30;;